Time,TemperatureF,DewpointF,PressureIn,WindDirection,WindDirectionDegrees,WindSpeedMPH,WindSpeedGustMPH,Humidity,HourlyPrecipIn,Conditions,Clouds,dailyrainin,SoftwareType,DateUTC
2013-01-22 00:02:00,53.2,25.5,30.14,ENE,67,5.0,10.0,34,0.00,,,0.00,meteohub,2013-01-22 08:02:00,
2013-01-22 00:07:00,53.4,25.7,30.14,NE,47,7.0,10.0,34,0.00,,,0.00,meteohub,2013-01-22 08:07:00,
2013-01-22 00:12:00,53.8,25.3,30.14,ENE,63,8.0,9.0,33,0.00,,,0.00,meteohub,2013-01-22 08:12:00,
2013-01-22 00:17:00,54.0,24.8,30.14,ENE,66,8.0,9.0,32,0.00,,,0.00,meteohub,2013-01-22 08:17:00,
2013-01-22 00:22:00,54.1,25.0,30.14,NE,38,5.0,9.0,32,0.00,,,0.00,meteohub,2013-01-22 08:22:00,
2013-01-22 00:27:00,54.1,25.0,30.14,NE,44,4.0,9.0,32,0.00,,,0.00,meteohub,2013-01-22 08:27:00,
2013-01-22 00:32:00,54.0,24.1,30.14,ENE,58,5.0,11.0,31,0.00,,,0.00,meteohub,2013-01-22 08:32:00,
2013-01-22 00:37:00,53.8,23.9,30.13,NE,35,4.0,11.0,31,0.00,,,0.00,meteohub,2013-01-22 08:37:00,
2013-01-22 00:42:00,53.4,23.5,30.13,NE,41,6.0,11.0,31,0.00,,,0.00,meteohub,2013-01-22 08:42:00,
2013-01-22 00:47:00,53.4,22.8,30.13,NE,39,8.0,11.0,30,0.00,,,0.00,meteohub,2013-01-22 08:47:00,
2013-01-22 00:52:00,53.4,23.5,30.13,NE,35,5.0,11.0,31,0.00,,,0.00,meteohub,2013-01-22 08:52:00,
2013-01-22 00:57:00,52.9,24.6,30.13,NNE,32,5.0,11.0,33,0.00,,,0.00,meteohub,2013-01-22 08:57:00,
2013-01-22 01:02:00,52.2,24.6,30.13,NE,44,8.0,9.0,34,0.00,,,0.00,meteohub,2013-01-22 09:02:00,
2013-01-22 01:07:00,51.6,25.5,30.13,NE,53,5.0,9.0,36,0.00,,,0.00,meteohub,2013-01-22 09:07:00,
2013-01-22 01:12:00,51.4,26.1,30.13,NE,53,5.0,8.0,37,0.00,,,0.00,meteohub,2013-01-22 09:12:00,
2013-01-22 01:17:00,50.7,26.1,30.13,NE,54,6.0,8.0,38,0.00,,,0.00,meteohub,2013-01-22 09:17:00,
2013-01-22 01:22:00,51.1,25.7,30.13,NE,34,7.0,9.0,37,0.00,,,0.00,meteohub,2013-01-22 09:22:00,
2013-01-22 01:27:00,51.1,25.7,30.13,NE,38,5.0,9.0,37,0.00,,,0.00,meteohub,2013-01-22 09:27:00,
2013-01-22 01:32:00,50.7,24.1,30.13,NE,47,5.0,9.0,35,0.00,,,0.00,meteohub,2013-01-22 09:32:00,
2013-01-22 01:37:00,50.7,24.1,30.12,NE,44,5.0,9.0,35,0.00,,,0.00,meteohub,2013-01-22 09:37:00,
2013-01-22 01:42:00,50.5,24.6,30.12,NE,42,4.0,9.0,36,0.00,,,0.00,meteohub,2013-01-22 09:42:00,
2013-01-22 01:47:00,50.5,23.2,30.12,NE,38,6.0,10.0,34,0.00,,,0.00,meteohub,2013-01-22 09:47:00,
2013-01-22 01:52:00,50.7,21.2,30.12,NE,51,6.0,10.0,31,0.00,,,0.00,meteohub,2013-01-22 09:52:00,
2013-01-22 01:57:00,51.1,21.6,30.12,NNE,20,5.0,10.0,31,0.00,,,0.00,meteohub,2013-01-22 09:57:00,
2013-01-22 02:02:00,51.1,22.3,30.13,ENE,58,5.0,11.0,32,0.00,,,0.00,meteohub,2013-01-22 10:02:00,
2013-01-22 02:07:00,50.7,21.9,30.13,ENE,63,5.0,11.0,32,0.00,,,0.00,meteohub,2013-01-22 10:07:00,
2013-01-22 02:12:00,50.9,22.1,30.13,NNE,28,4.0,11.0,32,0.00,,,0.00,meteohub,2013-01-22 10:12:00,
2013-01-22 02:17:00,50.7,21.9,30.12,NE,36,4.0,10.0,32,0.00,,,0.00,meteohub,2013-01-22 10:17:00,
2013-01-22 02:22:00,50.2,22.1,30.12,ENE,58,5.0,10.0,33,0.00,,,0.00,meteohub,2013-01-22 10:22:00,
2013-01-22 02:27:00,49.6,22.5,30.12,NNE,20,5.0,10.0,34,0.00,,,0.00,meteohub,2013-01-22 10:27:00,
2013-01-22 02:32:00,49.8,21.9,30.12,NE,38,8.0,9.0,33,0.00,,,0.00,meteohub,2013-01-22 10:32:00,
2013-01-22 02:37:00,49.8,21.9,30.13,NNE,32,6.0,10.0,33,0.00,,,0.00,meteohub,2013-01-22 10:37:00,
2013-01-22 02:42:00,49.5,22.3,30.12,NNE,22,6.0,10.0,34,0.00,,,0.00,meteohub,2013-01-22 10:42:00,
2013-01-22 02:47:00,49.5,22.3,30.12,NE,43,7.0,10.0,34,0.00,,,0.00,meteohub,2013-01-22 10:47:00,
2013-01-22 02:52:00,49.6,21.7,30.12,NE,41,5.0,10.0,33,0.00,,,0.00,meteohub,2013-01-22 10:52:00,
2013-01-22 02:57:00,49.5,23.0,30.12,ENE,59,7.0,10.0,35,0.00,,,0.00,meteohub,2013-01-22 10:57:00,
2013-01-22 03:02:00,49.5,23.5,30.12,ENE,69,8.0,10.0,36,0.00,,,0.00,meteohub,2013-01-22 11:02:00,
2013-01-22 03:07:00,49.5,23.0,30.12,ENE,57,7.0,10.0,35,0.00,,,0.00,meteohub,2013-01-22 11:07:00,
2013-01-22 03:12:00,49.5,23.5,30.12,ENE,64,5.0,10.0,36,0.00,,,0.00,meteohub,2013-01-22 11:12:00,
2013-01-22 03:17:00,49.6,23.2,30.12,East,80,7.0,10.0,35,0.00,,,0.00,meteohub,2013-01-22 11:17:00,
2013-01-22 03:22:00,49.8,23.2,30.12,NE,55,6.0,10.0,35,0.00,,,0.00,meteohub,2013-01-22 11:22:00,
2013-01-22 03:27:00,49.8,23.2,30.12,NE,49,6.0,10.0,35,0.00,,,0.00,meteohub,2013-01-22 11:27:00,
2013-01-22 03:32:00,49.8,23.2,30.12,NE,53,5.0,10.0,35,0.00,,,0.00,meteohub,2013-01-22 11:32:00,
2013-01-22 03:37:00,50.0,23.4,30.12,NNE,25,5.0,10.0,35,0.00,,,0.00,meteohub,2013-01-22 11:37:00,
2013-01-22 03:42:00,49.8,23.9,30.12,NE,55,7.0,10.0,36,0.00,,,0.00,meteohub,2013-01-22 11:42:00,
2013-01-22 03:47:00,49.8,23.9,30.11,NNE,21,8.0,10.0,36,0.00,,,0.00,meteohub,2013-01-22 11:47:00,
2013-01-22 03:52:00,49.8,23.9,30.11,NE,42,4.0,12.0,36,0.00,,,0.00,meteohub,2013-01-22 11:52:00,
2013-01-22 03:57:00,49.8,23.9,30.11,NNE,26,4.0,13.0,36,0.00,,,0.00,meteohub,2013-01-22 11:57:00,
2013-01-22 04:02:00,49.6,23.7,30.11,ENE,59,7.0,13.0,36,0.00,,,0.00,meteohub,2013-01-22 12:02:00,
2013-01-22 04:08:00,49.6,23.7,30.11,ENE,62,5.0,13.0,36,0.00,,,0.00,meteohub,2013-01-22 12:08:00,
2013-01-22 04:13:00,49.6,23.2,30.11,ENE,68,9.0,11.0,35,0.00,,,0.00,meteohub,2013-01-22 12:13:00,
2013-01-22 04:18:00,50.0,23.4,30.11,NE,44,5.0,11.0,35,0.00,,,0.00,meteohub,2013-01-22 12:18:00,
2013-01-22 04:23:00,49.8,23.2,30.11,ENE,59,10.0,11.0,35,0.00,,,0.00,meteohub,2013-01-22 12:23:00,
2013-01-22 04:28:00,49.8,22.6,30.10,NE,52,7.0,12.0,34,0.00,,,0.00,meteohub,2013-01-22 12:28:00,
2013-01-22 04:33:00,49.6,23.2,30.10,NE,44,10.0,12.0,35,0.00,,,0.00,meteohub,2013-01-22 12:33:00,
2013-01-22 04:38:00,49.6,23.2,30.10,NE,51,6.0,12.0,35,0.00,,,0.00,meteohub,2013-01-22 12:38:00,
2013-01-22 04:43:00,49.6,23.7,30.10,NE,40,6.0,10.0,36,0.00,,,0.00,meteohub,2013-01-22 12:43:00,
2013-01-22 04:48:00,49.8,23.2,30.10,NE,49,7.0,10.0,35,0.00,,,0.00,meteohub,2013-01-22 12:48:00,
2013-01-22 04:53:00,50.0,23.4,30.10,NE,38,4.0,10.0,35,0.00,,,0.00,meteohub,2013-01-22 12:53:00,
2013-01-22 04:58:00,49.6,23.7,30.11,NE,49,6.0,10.0,36,0.00,,,0.00,meteohub,2013-01-22 12:58:00,
2013-01-22 05:03:00,49.3,22.8,30.10,NE,43,5.0,10.0,35,0.00,,,0.00,meteohub,2013-01-22 13:03:00,
2013-01-22 05:08:00,49.6,21.7,30.10,ENE,66,7.0,8.0,33,0.00,,,0.00,meteohub,2013-01-22 13:08:00,
2013-01-22 05:13:00,50.2,21.4,30.10,ENE,59,5.0,9.0,32,0.00,,,0.00,meteohub,2013-01-22 13:13:00,
2013-01-22 05:18:00,50.5,22.5,30.11,ENE,71,7.0,9.0,33,0.00,,,0.00,meteohub,2013-01-22 13:18:00,
2013-01-22 05:23:00,50.7,22.6,30.11,ENE,74,5.0,9.0,33,0.00,,,0.00,meteohub,2013-01-22 13:23:00,
2013-01-22 05:28:00,50.9,22.8,30.11,NNE,31,4.0,9.0,33,0.00,,,0.00,meteohub,2013-01-22 13:28:00,
2013-01-22 05:33:00,50.9,22.8,30.10,ENE,61,7.0,9.0,33,0.00,,,0.00,meteohub,2013-01-22 13:33:00,
2013-01-22 05:38:00,51.1,23.7,30.11,ENE,57,7.0,9.0,34,0.00,,,0.00,meteohub,2013-01-22 13:38:00,
2013-01-22 05:43:00,50.7,24.1,30.11,NE,45,2.0,9.0,35,0.00,,,0.00,meteohub,2013-01-22 13:43:00,
2013-01-22 05:48:00,50.4,24.4,30.11,NE,43,4.0,9.0,36,0.00,,,0.00,meteohub,2013-01-22 13:48:00,
2013-01-22 05:53:00,50.4,24.4,30.11,ENE,59,8.0,8.0,36,0.00,,,0.00,meteohub,2013-01-22 13:53:00,
2013-01-22 05:58:00,50.4,23.7,30.11,NE,35,6.0,8.0,35,0.00,,,0.00,meteohub,2013-01-22 13:58:00,
2013-01-22 06:03:00,50.2,23.5,30.11,NNE,27,5.0,9.0,35,0.00,,,0.00,meteohub,2013-01-22 14:03:00,
2013-01-22 06:08:00,48.9,24.4,30.11,NNE,30,5.0,9.0,38,0.00,,,0.00,meteohub,2013-01-22 14:08:00,
2013-01-22 06:14:00,48.9,23.7,30.11,NNE,30,5.0,9.0,37,0.00,,,0.00,meteohub,2013-01-22 14:14:00,
2013-01-22 06:18:00,48.6,23.5,30.12,NNE,30,5.0,9.0,37,0.00,,,0.00,meteohub,2013-01-22 14:18:00,
2013-01-22 06:23:00,48.6,23.5,30.11,NNE,29,5.0,9.0,37,0.00,,,0.00,meteohub,2013-01-22 14:23:00,
2013-01-22 06:28:00,48.6,23.5,30.11,NE,46,6.0,8.0,37,0.00,,,0.00,meteohub,2013-01-22 14:28:00,
2013-01-22 06:33:00,48.0,23.0,30.11,NE,38,5.0,8.0,37,0.00,,,0.00,meteohub,2013-01-22 14:33:00,
2013-01-22 06:39:00,47.7,23.4,30.11,NE,36,4.0,8.0,38,0.00,,,0.00,meteohub,2013-01-22 14:39:00,
2013-01-22 06:44:00,47.8,24.1,30.11,NE,53,6.0,9.0,39,0.00,,,0.00,meteohub,2013-01-22 14:44:00,
2013-01-22 06:49:00,47.8,23.5,30.11,NNE,17,3.0,9.0,38,0.00,,,0.00,meteohub,2013-01-22 14:49:00,
2013-01-22 06:54:00,47.8,24.1,30.11,NE,48,5.0,9.0,39,0.00,,,0.00,meteohub,2013-01-22 14:54:00,
2013-01-22 06:59:00,47.5,22.5,30.11,NE,52,6.0,8.0,37,0.00,,,0.00,meteohub,2013-01-22 14:59:00,
2013-01-22 07:04:00,48.4,21.9,30.11,ENE,61,8.0,9.0,35,0.00,,,0.00,meteohub,2013-01-22 15:04:00,
2013-01-22 07:09:00,49.3,22.1,30.11,NNE,26,7.0,9.0,34,0.00,,,0.00,meteohub,2013-01-22 15:09:00,
2013-01-22 07:14:00,49.6,21.7,30.11,ENE,65,5.0,9.0,33,0.00,,,0.00,meteohub,2013-01-22 15:14:00,
2013-01-22 07:19:00,49.8,21.9,30.11,ENE,58,5.0,9.0,33,0.00,,,0.00,meteohub,2013-01-22 15:19:00,
2013-01-22 07:24:00,49.8,21.2,30.11,NNE,27,6.0,9.0,32,0.00,,,0.00,meteohub,2013-01-22 15:24:00,
2013-01-22 07:29:00,49.3,21.4,30.11,ENE,57,4.0,9.0,33,0.00,,,0.00,meteohub,2013-01-22 15:29:00,
2013-01-22 07:34:00,48.7,21.6,30.11,ENE,63,4.0,9.0,34,0.00,,,0.00,meteohub,2013-01-22 15:34:00,
2013-01-22 07:39:00,48.9,21.0,30.11,NE,48,4.0,9.0,33,0.00,,,0.00,meteohub,2013-01-22 15:39:00,
2013-01-22 07:44:00,48.9,21.0,30.11,NE,48,5.0,9.0,33,0.00,,,0.00,meteohub,2013-01-22 15:44:00,
2013-01-22 07:49:00,48.9,21.0,30.11,NE,53,4.0,9.0,33,0.00,,,0.00,meteohub,2013-01-22 15:49:00,
2013-01-22 07:54:00,48.9,21.7,30.11,ENE,58,5.0,9.0,34,0.00,,,0.00,meteohub,2013-01-22 15:54:00,
2013-01-22 07:59:00,49.3,20.7,30.11,ENE,57,8.0,8.0,32,0.00,,,0.00,meteohub,2013-01-22 15:59:00,
2013-01-22 08:04:00,49.6,21.0,30.11,ENE,57,5.0,9.0,32,0.00,,,0.00,meteohub,2013-01-22 16:04:00,
2013-01-22 08:09:00,50.0,22.1,30.11,NE,45,7.0,9.0,33,0.00,,,0.00,meteohub,2013-01-22 16:09:00,
2013-01-22 08:14:00,50.2,22.1,30.12,NE,44,5.0,9.0,33,0.00,,,0.00,meteohub,2013-01-22 16:14:00,
2013-01-22 08:19:00,49.8,22.6,30.11,NE,51,5.0,9.0,34,0.00,,,0.00,meteohub,2013-01-22 16:19:00,
2013-01-22 08:24:00,49.8,22.6,30.12,NE,42,5.0,9.0,34,0.00,,,0.00,meteohub,2013-01-22 16:24:00,
2013-01-22 08:29:00,49.8,21.9,30.12,NE,46,4.0,9.0,33,0.00,,,0.00,meteohub,2013-01-22 16:29:00,
2013-01-22 08:34:00,50.2,22.8,30.12,ENE,61,5.0,9.0,34,0.00,,,0.00,meteohub,2013-01-22 16:34:00,
2013-01-22 08:39:00,50.4,22.3,30.12,ENE,57,5.0,7.0,33,0.00,,,0.00,meteohub,2013-01-22 16:39:00,
2013-01-22 08:44:00,50.5,22.5,30.12,ENE,62,5.0,7.0,33,0.00,,,0.00,meteohub,2013-01-22 16:44:00,
2013-01-22 08:49:00,50.5,22.5,30.12,NE,54,5.0,7.0,33,0.00,,,0.00,meteohub,2013-01-22 16:49:00,
2013-01-22 08:54:00,50.5,23.9,30.12,NE,38,6.0,7.0,35,0.00,,,0.00,meteohub,2013-01-22 16:54:00,
2013-01-22 08:59:00,50.5,23.9,30.12,NE,47,3.0,8.0,35,0.00,,,0.00,meteohub,2013-01-22 16:59:00,
2013-01-22 09:04:00,50.5,23.2,30.12,NNE,33,3.0,8.0,34,0.00,,,0.00,meteohub,2013-01-22 17:04:00,
2013-01-22 09:09:00,50.5,23.2,30.12,NE,46,3.0,8.0,34,0.00,,,0.00,meteohub,2013-01-22 17:09:00,
2013-01-22 09:14:00,50.5,23.2,30.12,NE,47,3.0,9.0,34,0.00,,,0.00,meteohub,2013-01-22 17:14:00,
2013-01-22 09:19:00,50.2,24.3,30.12,NNE,29,6.0,9.0,36,0.00,,,0.00,meteohub,2013-01-22 17:19:00,
2013-01-22 09:24:00,50.2,24.3,30.12,NE,52,6.0,9.0,36,0.00,,,0.00,meteohub,2013-01-22 17:24:00,
2013-01-22 09:29:00,49.8,24.6,30.12,NE,52,7.0,9.0,37,0.00,,,0.00,meteohub,2013-01-22 17:29:00,
2013-01-22 09:34:00,50.2,25.0,30.12,NE,40,6.0,10.0,37,0.00,,,0.00,meteohub,2013-01-22 17:34:00,
2013-01-22 09:39:00,50.4,25.0,30.13,ENE,61,9.0,10.0,37,0.00,,,0.00,meteohub,2013-01-22 17:39:00,
2013-01-22 09:44:00,50.5,25.2,30.13,NE,36,8.0,10.0,37,0.00,,,0.00,meteohub,2013-01-22 17:44:00,
2013-01-22 09:49:00,50.5,25.9,30.13,NE,40,6.0,10.0,38,0.00,,,0.00,meteohub,2013-01-22 17:49:00,
2013-01-22 09:54:00,50.5,27.1,30.13,NNE,26,8.0,10.0,40,0.00,,,0.00,meteohub,2013-01-22 17:54:00,
2013-01-22 09:59:00,50.5,26.4,30.14,NE,36,8.0,10.0,39,0.00,,,0.00,meteohub,2013-01-22 17:59:00,
2013-01-22 10:04:00,50.7,27.9,30.14,NNE,32,6.0,10.0,41,0.00,,,0.00,meteohub,2013-01-22 18:04:00,
2013-01-22 10:09:00,50.7,27.9,30.14,NE,53,4.0,11.0,41,0.00,,,0.00,meteohub,2013-01-22 18:09:00,
2013-01-22 10:14:00,51.3,27.7,30.14,NE,38,9.0,11.0,40,0.00,,,0.00,meteohub,2013-01-22 18:14:00,
2013-01-22 10:20:00,51.4,27.3,30.14,NE,43,9.0,11.0,39,0.00,,,0.00,meteohub,2013-01-22 18:20:00,
2013-01-22 10:25:00,51.8,28.2,30.14,NE,49,5.0,12.0,40,0.00,,,0.00,meteohub,2013-01-22 18:25:00,
2013-01-22 10:30:00,52.0,28.4,30.14,NE,51,9.0,12.0,40,0.00,,,0.00,meteohub,2013-01-22 18:30:00,
2013-01-22 10:35:00,52.2,28.6,30.14,NNE,15,5.0,12.0,40,0.00,,,0.00,meteohub,2013-01-22 18:35:00,
2013-01-22 10:40:00,52.5,28.2,30.14,NE,46,7.0,10.0,39,0.00,,,0.00,meteohub,2013-01-22 18:40:00,
2013-01-22 10:45:00,53.1,29.3,30.14,NE,40,5.0,10.0,40,0.00,,,0.00,meteohub,2013-01-22 18:45:00,
2013-01-22 10:50:00,53.4,29.7,30.14,NE,53,6.0,9.0,40,0.00,,,0.00,meteohub,2013-01-22 18:50:00,
2013-01-22 10:55:00,54.0,28.9,30.14,NE,45,6.0,9.0,38,0.00,,,0.00,meteohub,2013-01-22 18:55:00,
2013-01-22 11:00:00,54.0,29.5,30.14,NNE,31,4.0,9.0,39,0.00,,,0.00,meteohub,2013-01-22 19:00:00,
2013-01-22 11:05:00,54.0,29.5,30.14,NNE,17,4.0,9.0,39,0.00,,,0.00,meteohub,2013-01-22 19:05:00,
2013-01-22 11:10:00,53.6,29.3,30.14,NE,53,5.0,9.0,39,0.00,,,0.00,meteohub,2013-01-22 19:10:00,
2013-01-22 11:15:00,53.8,30.0,30.14,ENE,64,5.0,9.0,40,0.00,,,0.00,meteohub,2013-01-22 19:15:00,
2013-01-22 11:20:00,53.8,28.8,30.14,NE,39,2.0,9.0,38,0.00,,,0.00,meteohub,2013-01-22 19:20:00,
2013-01-22 11:25:00,54.0,28.9,30.14,NE,44,7.0,8.0,38,0.00,,,0.00,meteohub,2013-01-22 19:25:00,
2013-01-22 11:30:00,54.7,29.5,30.14,ENE,60,5.0,8.0,38,0.00,,,0.00,meteohub,2013-01-22 19:30:00,
2013-01-22 11:35:00,54.9,29.7,30.13,ENE,61,4.0,8.0,38,0.00,,,0.00,meteohub,2013-01-22 19:35:00,
2013-01-22 11:40:00,54.7,30.2,30.13,NE,55,6.0,8.0,39,0.00,,,0.00,meteohub,2013-01-22 19:40:00,
2013-01-22 11:45:00,55.0,29.3,30.12,ENE,62,5.0,8.0,37,0.00,,,0.00,meteohub,2013-01-22 19:45:00,
2013-01-22 11:50:00,55.6,29.7,30.12,NE,42,4.0,8.0,37,0.00,,,0.00,meteohub,2013-01-22 19:50:00,
2013-01-22 11:55:00,55.0,28.6,30.12,ENE,64,4.0,9.0,36,0.00,,,0.00,meteohub,2013-01-22 19:55:00,
2013-01-22 12:00:00,55.0,29.3,30.11,NE,35,4.0,9.0,37,0.00,,,0.00,meteohub,2013-01-22 20:00:00,
2013-01-22 12:05:00,55.6,29.7,30.11,NE,44,4.0,9.0,37,0.00,,,0.00,meteohub,2013-01-22 20:05:00,
2013-01-22 12:10:00,55.9,29.3,30.11,NE,48,4.0,9.0,36,0.00,,,0.00,meteohub,2013-01-22 20:10:00,
2013-01-22 12:15:00,55.9,30.0,30.11,ENE,65,5.0,9.0,37,0.00,,,0.00,meteohub,2013-01-22 20:15:00,
2013-01-22 12:20:00,55.8,30.6,30.11,NE,53,5.0,8.0,38,0.00,,,0.00,meteohub,2013-01-22 20:20:00,
2013-01-22 12:25:00,55.6,29.7,30.11,ENE,58,4.0,8.0,37,0.00,,,0.00,meteohub,2013-01-22 20:25:00,
2013-01-22 12:30:00,56.3,31.1,30.10,North,9,5.0,8.0,38,0.00,,,0.00,meteohub,2013-01-22 20:30:00,
2013-01-22 12:35:00,56.1,29.5,30.10,ENE,57,3.0,8.0,36,0.00,,,0.00,meteohub,2013-01-22 20:35:00,
2013-01-22 12:41:00,56.1,31.5,30.09,ENE,65,4.0,8.0,39,0.00,,,0.00,meteohub,2013-01-22 20:41:00,
2013-01-22 12:46:00,56.5,31.1,30.09,NE,36,3.0,8.0,38,0.00,,,0.00,meteohub,2013-01-22 20:46:00,
2013-01-22 12:51:00,57.2,31.1,30.09,ENE,60,5.0,8.0,37,0.00,,,0.00,meteohub,2013-01-22 20:51:00,
2013-01-22 12:56:00,57.0,31.6,30.08,ENE,61,9.0,9.0,38,0.00,,,0.00,meteohub,2013-01-22 20:56:00,
2013-01-22 13:01:00,57.7,32.9,30.08,North,350,5.0,9.0,39,0.00,,,0.00,meteohub,2013-01-22 21:01:00,
2013-01-22 13:06:00,57.6,30.7,30.08,NE,44,1.0,9.0,36,0.00,,,0.00,meteohub,2013-01-22 21:06:00,
2013-01-22 13:11:00,56.7,30.0,30.08,North,11,6.0,9.0,36,0.00,,,0.00,meteohub,2013-01-22 21:11:00,
2013-01-22 13:16:00,57.4,30.6,30.08,NNE,17,5.0,7.0,36,0.00,,,0.00,meteohub,2013-01-22 21:16:00,
2013-01-22 13:21:00,57.9,31.8,30.08,NE,49,2.0,6.0,37,0.00,,,0.00,meteohub,2013-01-22 21:21:00,
2013-01-22 13:26:00,57.9,30.4,30.08,North,10,1.0,6.0,35,0.00,,,0.00,meteohub,2013-01-22 21:26:00,
2013-01-22 13:31:00,58.5,31.6,30.07,North,5,3.0,5.0,36,0.00,,,0.00,meteohub,2013-01-22 21:31:00,
2013-01-22 13:36:00,57.7,32.4,30.07,NNE,22,1.0,5.0,38,0.00,,,0.00,meteohub,2013-01-22 21:36:00,
2013-01-22 13:41:00,57.9,31.1,30.06,ENE,62,2.0,5.0,36,0.00,,,0.00,meteohub,2013-01-22 21:41:00,
2013-01-22 13:47:00,58.3,32.7,30.06,NE,53,3.0,5.0,38,0.00,,,0.00,meteohub,2013-01-22 21:47:00,
2013-01-22 13:52:00,57.6,30.7,30.07,ENE,61,2.0,5.0,36,0.00,,,0.00,meteohub,2013-01-22 21:52:00,
2013-01-22 13:57:00,56.8,31.5,30.06,ENE,61,1.0,5.0,38,0.00,,,0.00,meteohub,2013-01-22 21:57:00,
2013-01-22 14:02:00,57.6,31.5,30.06,NNE,30,0.0,5.0,37,0.00,,,0.00,meteohub,2013-01-22 22:02:00,
2013-01-22 14:07:00,58.1,32.0,30.06,NNE,30,3.0,4.0,37,0.00,,,0.00,meteohub,2013-01-22 22:07:00,
2013-01-22 14:12:00,58.1,32.0,30.06,NNE,30,2.0,4.0,37,0.00,,,0.00,meteohub,2013-01-22 22:12:00,
2013-01-22 14:17:00,58.3,33.4,30.06,NNE,30,2.0,4.0,39,0.00,,,0.00,meteohub,2013-01-22 22:17:00,
2013-01-22 14:22:00,58.6,31.8,30.06,NNE,30,1.0,4.0,36,0.00,,,0.00,meteohub,2013-01-22 22:22:00,
2013-01-22 14:27:00,57.9,32.5,30.06,NNE,30,0.0,3.0,38,0.00,,,0.00,meteohub,2013-01-22 22:27:00,
2013-01-22 14:32:00,57.2,33.6,30.06,NNE,30,0.0,3.0,41,0.00,,,0.00,meteohub,2013-01-22 22:32:00,
2013-01-22 14:37:00,57.0,34.2,30.06,NNE,30,0.0,3.0,42,0.00,,,0.00,meteohub,2013-01-22 22:37:00,
2013-01-22 14:42:00,57.4,35.1,30.06,NNE,30,0.0,3.0,43,0.00,,,0.00,meteohub,2013-01-22 22:42:00,
2013-01-22 14:47:00,58.1,34.5,30.06,NNE,30,1.0,3.0,41,0.00,,,0.00,meteohub,2013-01-22 22:47:00,
2013-01-22 14:52:00,58.6,35.1,30.06,NNE,30,2.0,3.0,41,0.00,,,0.00,meteohub,2013-01-22 22:52:00,
2013-01-22 14:57:00,58.5,35.4,30.06,NNE,30,1.0,3.0,42,0.00,,,0.00,meteohub,2013-01-22 22:57:00,
2013-01-22 15:02:00,57.9,34.3,30.05,NNE,30,2.0,3.0,41,0.00,,,0.00,meteohub,2013-01-22 23:02:00,
2013-01-22 15:07:00,57.6,34.0,30.05,NNE,30,0.0,3.0,41,0.00,,,0.00,meteohub,2013-01-22 23:07:00,
2013-01-22 15:13:00,56.8,34.5,30.06,NNE,30,0.0,3.0,43,0.00,,,0.00,meteohub,2013-01-22 23:13:00,
2013-01-22 15:18:00,56.7,34.3,30.06,NNE,30,0.0,3.0,43,0.00,,,0.00,meteohub,2013-01-22 23:18:00,
2013-01-22 15:23:00,56.7,34.3,30.06,NNE,30,1.0,2.0,43,0.00,,,0.00,meteohub,2013-01-22 23:23:00,
2013-01-22 15:28:00,56.3,35.8,30.06,NNE,30,0.0,2.0,46,0.00,,,0.00,meteohub,2013-01-22 23:28:00,
2013-01-22 15:33:00,55.9,35.4,30.06,NNE,30,0.0,2.0,46,0.00,,,0.00,meteohub,2013-01-22 23:33:00,
2013-01-22 15:38:00,55.8,34.2,30.06,NNE,30,1.0,2.0,44,0.00,,,0.00,meteohub,2013-01-22 23:38:00,
2013-01-22 15:43:00,55.8,34.7,30.05,NNE,30,0.0,2.0,45,0.00,,,0.00,meteohub,2013-01-22 23:43:00,
2013-01-22 15:48:00,55.6,35.1,30.05,NNE,30,0.0,2.0,46,0.00,,,0.00,meteohub,2013-01-22 23:48:00,
2013-01-22 15:53:00,55.4,34.9,30.05,NNE,30,0.0,2.0,46,0.00,,,0.00,meteohub,2013-01-22 23:53:00,
2013-01-22 15:58:00,54.7,37.9,30.05,NNE,30,0.0,2.0,53,0.00,,,0.00,meteohub,2013-01-22 23:58:00,
2013-01-22 16:03:00,54.1,37.4,30.05,NNE,30,1.0,2.0,53,0.00,,,0.00,meteohub,2013-01-23 00:03:00,
2013-01-22 16:08:00,53.6,37.8,30.05,NNE,30,1.0,2.0,55,0.00,,,0.00,meteohub,2013-01-23 00:08:00,
2013-01-22 16:13:00,53.8,36.1,30.05,NNE,30,1.0,2.0,51,0.00,,,0.00,meteohub,2013-01-23 00:13:00,
2013-01-22 16:18:00,54.0,34.7,30.05,NNE,30,1.0,2.0,48,0.00,,,0.00,meteohub,2013-01-23 00:18:00,
2013-01-22 16:23:00,54.0,37.2,30.04,NNE,30,1.0,2.0,53,0.00,,,0.00,meteohub,2013-01-23 00:23:00,
2013-01-22 16:28:00,54.0,38.7,30.04,NNE,30,2.0,2.0,56,0.00,,,0.00,meteohub,2013-01-23 00:28:00,
2013-01-22 16:33:00,53.4,38.1,30.04,NNE,30,1.0,2.0,56,0.00,,,0.00,meteohub,2013-01-23 00:33:00,
2013-01-22 16:38:00,53.1,37.8,30.04,NNE,30,1.0,2.0,56,0.00,,,0.00,meteohub,2013-01-23 00:38:00,
2013-01-22 16:43:00,52.7,37.4,30.04,NNE,30,0.0,2.0,56,0.00,,,0.00,meteohub,2013-01-23 00:43:00,
2013-01-22 16:48:00,52.5,37.8,30.04,NNE,30,2.0,2.0,57,0.00,,,0.00,meteohub,2013-01-23 00:48:00,
2013-01-22 16:53:00,52.2,37.4,30.04,NNE,30,2.0,2.0,57,0.00,,,0.00,meteohub,2013-01-23 00:53:00,
2013-01-22 16:58:00,51.6,37.4,30.04,NNE,30,2.0,3.0,58,0.00,,,0.00,meteohub,2013-01-23 00:58:00,
2013-01-22 17:03:00,50.9,37.0,30.04,NNE,30,1.0,3.0,59,0.00,,,0.00,meteohub,2013-01-23 01:03:00,
2013-01-22 17:08:00,50.2,36.9,30.04,NNE,30,0.0,3.0,60,0.00,,,0.00,meteohub,2013-01-23 01:08:00,
2013-01-22 17:13:00,49.3,37.2,30.04,NNE,30,0.0,3.0,63,0.00,,,0.00,meteohub,2013-01-23 01:13:00,
2013-01-22 17:18:00,49.3,36.9,30.04,NNE,30,1.0,3.0,62,0.00,,,0.00,meteohub,2013-01-23 01:18:00,
2013-01-22 17:23:00,49.5,35.2,30.04,NNE,30,3.0,3.0,58,0.00,,,0.00,meteohub,2013-01-23 01:23:00,
2013-01-22 17:28:00,49.6,36.0,30.04,NNE,30,0.0,4.0,59,0.00,,,0.00,meteohub,2013-01-23 01:28:00,
2013-01-22 17:33:00,49.3,36.0,30.04,NNE,30,3.0,4.0,60,0.00,,,0.00,meteohub,2013-01-23 01:33:00,
2013-01-22 17:38:00,49.1,35.4,30.04,NNE,30,3.0,4.0,59,0.00,,,0.00,meteohub,2013-01-23 01:38:00,
2013-01-22 17:43:00,48.7,35.4,30.04,NNE,30,2.0,4.0,60,0.00,,,0.00,meteohub,2013-01-23 01:43:00,
2013-01-22 17:48:00,48.4,35.6,30.04,NNE,30,2.0,4.0,61,0.00,,,0.00,meteohub,2013-01-23 01:48:00,
2013-01-22 17:53:00,47.8,35.4,30.04,NNE,30,2.0,4.0,62,0.00,,,0.00,meteohub,2013-01-23 01:53:00,
2013-01-22 17:58:00,47.8,35.4,30.04,NNE,30,3.0,4.0,62,0.00,,,0.00,meteohub,2013-01-23 01:58:00,
2013-01-22 18:03:00,47.8,35.8,30.04,NNE,30,3.0,4.0,63,0.00,,,0.00,meteohub,2013-01-23 02:03:00,
2013-01-22 18:08:00,47.8,36.3,30.04,NNE,30,3.0,4.0,64,0.00,,,0.00,meteohub,2013-01-23 02:08:00,
2013-01-22 18:13:00,47.8,36.3,30.04,NNE,30,4.0,4.0,64,0.00,,,0.00,meteohub,2013-01-23 02:13:00,
2013-01-22 18:18:00,47.8,35.8,30.04,NNE,30,2.0,4.0,63,0.00,,,0.00,meteohub,2013-01-23 02:18:00,
2013-01-22 18:23:00,47.7,35.6,30.04,NNE,30,2.0,5.0,63,0.00,,,0.00,meteohub,2013-01-23 02:23:00,
2013-01-22 18:28:00,47.7,34.9,30.04,NNE,30,2.0,5.0,61,0.00,,,0.00,meteohub,2013-01-23 02:28:00,
2013-01-22 18:33:00,47.1,36.0,30.04,NNE,30,0.0,5.0,65,0.00,,,0.00,meteohub,2013-01-23 02:33:00,
2013-01-22 18:38:00,47.1,36.3,30.04,NNE,30,0.0,4.0,66,0.00,,,0.00,meteohub,2013-01-23 02:38:00,
2013-01-22 18:43:00,47.7,36.1,30.04,NNE,30,0.0,4.0,64,0.00,,,0.00,meteohub,2013-01-23 02:43:00,
2013-01-22 18:48:00,48.6,35.8,30.04,NNE,30,2.0,3.0,61,0.00,,,0.00,meteohub,2013-01-23 02:48:00,
2013-01-22 18:53:00,48.0,36.0,30.03,NNE,30,3.0,3.0,63,0.00,,,0.00,meteohub,2013-01-23 02:53:00,
2013-01-22 18:58:00,47.5,35.6,30.04,NNE,30,2.0,4.0,63,0.00,,,0.00,meteohub,2013-01-23 02:58:00,
2013-01-22 19:03:00,46.9,35.8,30.04,NNE,30,1.0,4.0,65,0.00,,,0.00,meteohub,2013-01-23 03:03:00,
2013-01-22 19:08:00,46.8,35.6,30.04,NNE,30,0.0,4.0,65,0.00,,,0.00,meteohub,2013-01-23 03:08:00,
2013-01-22 19:14:00,46.9,35.4,30.04,NNE,30,0.0,3.0,64,0.00,,,0.00,meteohub,2013-01-23 03:14:00,
2013-01-22 19:19:00,47.5,34.3,30.04,NNE,30,0.0,3.0,60,0.00,,,0.00,meteohub,2013-01-23 03:19:00,
2013-01-22 19:24:00,48.0,34.0,30.04,NNE,30,1.0,2.0,58,0.00,,,0.00,meteohub,2013-01-23 03:24:00,
2013-01-22 19:29:00,48.0,34.0,30.04,NNE,30,0.0,1.0,58,0.00,,,0.00,meteohub,2013-01-23 03:29:00,
2013-01-22 19:34:00,47.5,35.1,30.04,NNE,30,1.0,2.0,62,0.00,,,0.00,meteohub,2013-01-23 03:34:00,
2013-01-22 19:39:00,47.1,35.2,30.04,NNE,30,2.0,3.0,63,0.00,,,0.00,meteohub,2013-01-23 03:39:00,
2013-01-22 19:44:00,46.6,35.1,30.04,NNE,30,1.0,3.0,64,0.00,,,0.00,meteohub,2013-01-23 03:44:00,
2013-01-22 19:49:00,46.2,35.1,30.04,NNE,30,0.0,3.0,65,0.00,,,0.00,meteohub,2013-01-23 03:49:00,
2013-01-22 19:54:00,46.8,34.9,30.05,NNE,30,1.0,3.0,63,0.00,,,0.00,meteohub,2013-01-23 03:54:00,
2013-01-22 19:59:00,46.0,33.8,30.05,NNE,30,2.0,3.0,62,0.00,,,0.00,meteohub,2013-01-23 03:59:00,
2013-01-22 20:04:00,46.0,34.5,30.04,NNE,30,2.0,3.0,64,0.00,,,0.00,meteohub,2013-01-23 04:04:00,
2013-01-22 20:09:00,46.4,33.3,30.04,NNE,30,0.0,3.0,60,0.00,,,0.00,meteohub,2013-01-23 04:09:00,
2013-01-22 20:14:00,46.8,34.0,30.04,NNE,30,0.0,3.0,61,0.00,,,0.00,meteohub,2013-01-23 04:14:00,
2013-01-22 20:19:00,46.2,34.0,30.04,NNE,30,2.0,3.0,62,0.00,,,0.00,meteohub,2013-01-23 04:19:00,
2013-01-22 20:24:00,45.9,34.0,30.04,NNE,30,1.0,4.0,63,0.00,,,0.00,meteohub,2013-01-23 04:24:00,
2013-01-22 20:29:00,45.7,33.8,30.04,NNE,30,1.0,4.0,63,0.00,,,0.00,meteohub,2013-01-23 04:29:00,
2013-01-22 20:34:00,45.9,33.3,30.05,NNE,30,1.0,4.0,61,0.00,,,0.00,meteohub,2013-01-23 04:34:00,
2013-01-22 20:39:00,46.0,34.5,30.05,NNE,30,1.0,2.0,64,0.00,,,0.00,meteohub,2013-01-23 04:39:00,
2013-01-22 20:44:00,45.9,35.1,30.05,NNE,30,1.0,2.0,66,0.00,,,0.00,meteohub,2013-01-23 04:44:00,
2013-01-22 20:49:00,45.3,34.7,30.06,NNE,30,0.0,2.0,66,0.00,,,0.00,meteohub,2013-01-23 04:49:00,
2013-01-22 20:54:00,45.5,34.9,30.06,NNE,30,1.0,2.0,66,0.00,,,0.00,meteohub,2013-01-23 04:54:00,
2013-01-22 20:59:00,45.5,34.9,30.06,NNE,30,0.0,2.0,66,0.00,,,0.00,meteohub,2013-01-23 04:59:00,
2013-01-22 21:00:00,45.3,34.7,30.06,NNE,30,0.0,2.0,66,0.00,,,0.00,meteohub,2013-01-23 05:00:00,
2013-01-22 21:03:00,44.8,34.9,30.06,NNE,30,1.0,1.0,68,0.00,,,0.00,meteohub,2013-01-23 05:03:00,
2013-01-22 21:08:00,44.8,34.9,30.06,NNE,30,2.0,2.0,68,0.00,,,0.00,meteohub,2013-01-23 05:08:00,
2013-01-22 21:13:00,45.1,35.6,30.07,NNE,30,2.0,3.0,69,0.00,,,0.00,meteohub,2013-01-23 05:13:00,
2013-01-22 21:18:00,45.3,35.1,30.07,NNE,30,3.0,3.0,67,0.00,,,0.00,meteohub,2013-01-23 05:18:00,
2013-01-22 21:23:00,45.1,35.6,30.07,NNE,30,2.0,3.0,69,0.00,,,0.00,meteohub,2013-01-23 05:23:00,
2013-01-22 21:28:00,45.0,34.3,30.07,NNE,30,0.0,3.0,66,0.00,,,0.00,meteohub,2013-01-23 05:28:00,
2013-01-22 21:33:00,45.9,34.0,30.07,NNE,30,0.0,3.0,63,0.00,,,0.00,meteohub,2013-01-23 05:33:00,
2013-01-22 21:38:00,45.9,33.6,30.07,NNE,30,1.0,3.0,62,0.00,,,0.00,meteohub,2013-01-23 05:38:00,
2013-01-22 21:43:00,46.2,34.0,30.07,NNE,30,1.0,2.0,62,0.00,,,0.00,meteohub,2013-01-23 05:43:00,
2013-01-22 21:48:00,45.1,34.2,30.07,NNE,30,2.0,3.0,65,0.00,,,0.00,meteohub,2013-01-23 05:48:00,
2013-01-22 21:53:00,44.8,33.3,30.08,NNE,30,2.0,3.0,64,0.00,,,0.00,meteohub,2013-01-23 05:53:00,
2013-01-22 21:58:00,45.0,34.3,30.08,NNE,30,1.0,3.0,66,0.00,,,0.00,meteohub,2013-01-23 05:58:00,
2013-01-22 22:03:00,45.1,33.3,30.08,NNE,30,2.0,3.0,63,0.00,,,0.00,meteohub,2013-01-23 06:03:00,
2013-01-22 22:08:00,45.0,33.4,30.08,NNE,30,0.0,3.0,64,0.00,,,0.00,meteohub,2013-01-23 06:08:00,
2013-01-22 22:13:00,45.1,34.2,30.08,NNE,30,1.0,3.0,65,0.00,,,0.00,meteohub,2013-01-23 06:13:00,
2013-01-22 22:18:00,45.0,33.4,30.08,NNE,30,2.0,3.0,64,0.00,,,0.00,meteohub,2013-01-23 06:18:00,
2013-01-22 22:23:00,44.6,34.3,30.08,NNE,30,2.0,3.0,67,0.00,,,0.00,meteohub,2013-01-23 06:23:00,
2013-01-22 22:28:00,44.2,34.3,30.08,NNE,30,2.0,3.0,68,0.00,,,0.00,meteohub,2013-01-23 06:28:00,
2013-01-22 22:33:00,43.7,34.2,30.08,NNE,30,0.0,3.0,69,0.00,,,0.00,meteohub,2013-01-23 06:33:00,
2013-01-22 22:38:00,43.9,34.7,30.08,NNE,30,0.0,3.0,70,0.00,,,0.00,meteohub,2013-01-23 06:38:00,
2013-01-22 22:43:00,44.4,34.2,30.08,NNE,30,1.0,3.0,67,0.00,,,0.00,meteohub,2013-01-23 06:43:00,
2013-01-22 22:48:00,44.4,34.5,30.08,NNE,30,1.0,2.0,68,0.00,,,0.00,meteohub,2013-01-23 06:48:00,
2013-01-22 22:53:00,44.1,34.9,30.08,NNE,30,1.0,3.0,70,0.00,,,0.00,meteohub,2013-01-23 06:53:00,
2013-01-22 22:58:00,43.7,34.9,30.07,NNE,30,1.0,3.0,71,0.00,,,0.00,meteohub,2013-01-23 06:58:00,
2013-01-22 23:03:00,43.7,34.5,30.08,NNE,30,2.0,3.0,70,0.00,,,0.00,meteohub,2013-01-23 07:03:00,
2013-01-22 23:08:00,44.1,34.9,30.08,NNE,30,2.0,3.0,70,0.00,,,0.00,meteohub,2013-01-23 07:08:00,
2013-01-22 23:14:00,44.2,34.7,30.08,NNE,30,2.0,3.0,69,0.00,,,0.00,meteohub,2013-01-23 07:14:00,
2013-01-22 23:19:00,44.4,34.5,30.07,NNE,30,2.0,3.0,68,0.00,,,0.00,meteohub,2013-01-23 07:19:00,
2013-01-22 23:24:00,44.8,34.9,30.07,NNE,30,1.0,3.0,68,0.00,,,0.00,meteohub,2013-01-23 07:24:00,
2013-01-22 23:29:00,45.1,35.2,30.07,NNE,30,3.0,3.0,68,0.00,,,0.00,meteohub,2013-01-23 07:29:00,
2013-01-22 23:34:00,45.0,35.4,30.07,NNE,30,2.0,4.0,69,0.00,,,0.00,meteohub,2013-01-23 07:34:00,
2013-01-22 23:39:00,45.1,35.2,30.08,NNE,30,2.0,4.0,68,0.00,,,0.00,meteohub,2013-01-23 07:39:00,
2013-01-22 23:44:00,45.0,35.4,30.08,NNE,30,2.0,4.0,69,0.00,,,0.00,meteohub,2013-01-23 07:44:00,
2013-01-22 23:49:00,45.0,35.1,30.07,NNE,30,4.0,4.0,68,0.00,,,0.00,meteohub,2013-01-23 07:49:00,
2013-01-22 23:54:00,45.1,34.9,30.07,NNE,30,4.0,4.0,67,0.00,,,0.00,meteohub,2013-01-23 07:54:00,
2013-01-22 23:59:00,45.3,35.4,30.07,NNE,30,2.0,4.0,68,0.00,,,0.00,meteohub,2013-01-23 07:59:00,